Time;durP1;ratioP1;P1;durP2;ratioP2;P2;SDS_P1;SDS_P2;PMS_P1;PMS_P2;Temp;Humidity;BMP_temperature;BMP_pressure;BME280_temperature;BME280_humidity;BME280_pressure;Samples;Min_cycle;Max_cycle;Signal;HPM_P1;HPM_P2
2022/09/01 00:00:04;;;;;;;1.23;0.40;;;;;;;;;;5284427;28;20020;-68
2022/09/01 00:02:36;;;;;;;1.80;0.30;;;;;;;;;;5282706;28;20278;-68
2022/09/01 00:05:07;;;;;;;3.15;0.40;;;;;;;;;;5284159;28;20479;-68
2022/09/01 00:07:38;;;;;;;2.15;0.40;;;;;;;;;;5283592;28;20479;-68
2022/09/01 00:10:09;;;;;;;2.93;0.40;;;;;;;;;;5283479;28;20029;-68
2022/09/01 00:12:42;;;;;;;3.38;0.32;;;;;;;;;;5282205;28;20404;-67
2022/09/01 00:15:13;;;;;;;1.65;0.30;;;;;;;;;;5284331;28;20107;-67
2022/09/01 00:17:44;;;;;;;5.05;0.35;;;;;;;;;;5282863;28;20153;-68
2022/09/01 00:20:15;;;;;;;3.10;0.30;;;;;;;;;;5284189;28;20025;-68
2022/09/01 00:22:47;;;;;;;2.77;0.30;;;;;;;;;;5283412;28;20043;-68
2022/09/01 00:25:18;;;;;;;2.83;0.30;;;;;;;;;;5283336;28;20314;-68
2022/09/01 00:27:50;;;;;;;4.03;0.30;;;;;;;;;;5283267;28;20096;-68
2022/09/01 00:30:21;;;;;;;1.83;0.40;;;;;;;;;;5283182;28;20521;-68
2022/09/01 00:32:52;;;;;;;5.30;0.60;;;;;;;;;;5283253;28;20065;-68
2022/09/01 00:35:24;;;;;;;4.97;0.30;;;;;;;;;;5283321;28;20024;-68
2022/09/01 00:37:55;;;;;;;4.30;0.40;;;;;;;;;;5282863;28;20270;-69
2022/09/01 00:40:26;;;;;;;2.20;0.33;;;;;;;;;;5283191;28;20035;-68
2022/09/01 00:42:59;;;;;;;3.57;0.70;;;;;;;;;;5283764;28;20266;-68
2022/09/01 00:45:31;;;;;;;2.30;0.40;;;;;;;;;;5282168;28;20262;-68
2022/09/01 00:48:04;;;;;;;2.70;0.50;;;;;;;;;;5283523;28;20382;-68
2022/09/01 00:50:36;;;;;;;1.65;0.30;;;;;;;;;;5282910;28;20031;-69
2022/09/01 00:53:08;;;;;;;2.08;0.30;;;;;;;;;;5282827;28;20024;-68
2022/09/01 00:55:40;;;;;;;1.50;0.40;;;;;;;;;;5282782;28;20383;-68
2022/09/01 00:58:11;;;;;;;2.15;0.40;;;;;;;;;;5283255;28;20017;-68
2022/09/01 01:00:43;;;;;;;4.00;0.30;;;;;;;;;;5281715;28;20017;-68
2022/09/01 01:03:15;;;;;;;1.10;0.40;;;;;;;;;;5283028;28;20285;-68
2022/09/01 01:05:53;;;;;;;3.97;0.40;;;;;;;;;;5281576;28;20833;-68
2022/09/01 01:08:32;;;;;;;1.52;0.30;;;;;;;;;;5282942;28;20047;-68
2022/09/01 01:11:06;;;;;;;2.53;0.40;;;;;;;;;;5283024;28;20047;-68
2022/09/01 01:13:48;;;;;;;4.50;0.30;;;;;;;;;;5281482;28;20352;-68
2022/09/01 01:16:19;;;;;;;3.20;0.40;;;;;;;;;;5282820;28;20115;-68
2022/09/01 01:18:51;;;;;;;6.85;0.40;;;;;;;;;;5282229;28;20441;-68
2022/09/01 01:24:22;;;;;;;1.98;0.35;;;;;;;;;;5282645;28;20032;-68
2022/09/01 01:26:58;;;;;;;2.85;0.50;;;;;;;;;;5281541;28;20025;-69
2022/09/01 01:29:30;;;;;;;1.50;0.63;;;;;;;;;;5282102;28;20024;-69
2022/09/01 01:32:02;;;;;;;2.38;0.40;;;;;;;;;;5283049;28;20023;-68
2022/09/01 01:34:33;;;;;;;1.98;0.30;;;;;;;;;;5281056;28;20471;-69
2022/09/01 01:37:04;;;;;;;5.63;0.60;;;;;;;;;;5282720;28;20539;-68
2022/09/01 01:39:39;;;;;;;2.77;0.50;;;;;;;;;;5281787;28;20098;-69
2022/09/01 01:42:11;;;;;;;4.22;0.40;;;;;;;;;;5281628;28;20259;-67
2022/09/01 01:44:42;;;;;;;3.38;0.50;;;;;;;;;;5281444;28;20019;-68
2022/09/01 01:47:13;;;;;;;2.92;0.50;;;;;;;;;;5282558;28;20373;-67
2022/09/01 01:49:45;;;;;;;2.50;0.40;;;;;;;;;;5280999;28;20027;-67
2022/09/01 01:52:19;;;;;;;3.72;0.45;;;;;;;;;;5282341;28;20024;-68
2022/09/01 01:54:50;;;;;;;5.13;0.40;;;;;;;;;;5280690;28;20757;-68
2022/09/01 01:57:21;;;;;;;1.83;0.50;;;;;;;;;;5282451;28;20027;-68
2022/09/01 01:59:53;;;;;;;2.53;0.43;;;;;;;;;;5281801;28;20028;-68
2022/09/01 02:02:24;;;;;;;2.47;0.40;;;;;;;;;;5281218;28;20273;-69
2022/09/01 02:04:55;;;;;;;1.30;0.43;;;;;;;;;;5281108;28;20099;-69
2022/09/01 02:07:26;;;;;;;3.90;0.40;;;;;;;;;;5281193;28;20267;-68
2022/09/01 02:09:57;;;;;;;0.80;0.40;;;;;;;;;;5280808;28;20259;-67
2022/09/01 02:12:30;;;;;;;4.32;0.40;;;;;;;;;;5280923;28;20283;-67
2022/09/01 02:15:01;;;;;;;2.78;0.40;;;;;;;;;;5281495;28;20291;-67
2022/09/01 02:17:32;;;;;;;2.85;0.30;;;;;;;;;;5279975;28;20100;-68
2022/09/01 02:20:05;;;;;;;2.40;0.60;;;;;;;;;;5281650;28;20028;-68
2022/09/01 02:22:39;;;;;;;3.78;0.50;;;;;;;;;;5280891;28;20267;-68
2022/09/01 02:25:11;;;;;;;5.32;0.50;;;;;;;;;;5280695;28;20020;-68
2022/09/01 02:27:42;;;;;;;2.78;0.50;;;;;;;;;;5280771;28;20021;-67
2022/09/01 02:30:13;;;;;;;2.38;0.40;;;;;;;;;;5280666;28;20486;-67
2022/09/01 02:32:46;;;;;;;3.75;0.40;;;;;;;;;;5280813;28;20027;-67
2022/09/01 02:35:17;;;;;;;2.47;0.40;;;;;;;;;;5281940;28;20043;-68
2022/09/01 02:37:50;;;;;;;2.67;0.50;;;;;;;;;;5284168;28;20017;-68
2022/09/01 02:40:21;;;;;;;2.00;0.40;;;;;;;;;;5285275;28;20095;-68
2022/09/01 02:42:54;;;;;;;1.40;0.40;;;;;;;;;;5284802;28;20392;-68
2022/09/01 02:45:26;;;;;;;3.85;0.40;;;;;;;;;;5284323;28;20032;-69
2022/09/01 02:47:57;;;;;;;5.00;0.50;;;;;;;;;;5285292;28;20047;-69
2022/09/01 02:50:31;;;;;;;3.22;0.60;;;;;;;;;;5284657;28;20055;-68
2022/09/01 02:53:08;;;;;;;1.83;0.52;;;;;;;;;;5284309;28;20020;-68
2022/09/01 02:55:40;;;;;;;1.80;0.43;;;;;;;;;;5284389;28;20028;-68
2022/09/01 02:58:15;;;;;;;3.17;0.55;;;;;;;;;;5284406;28;20380;-68
2022/09/01 03:00:51;;;;;;;2.85;0.70;;;;;;;;;;5284514;28;20380;-68
2022/09/01 03:03:23;;;;;;;2.85;0.50;;;;;;;;;;5284882;28;20017;-68
2022/09/01 03:05:55;;;;;;;4.22;0.50;;;;;;;;;;5283866;28;20063;-68
2022/09/01 03:08:26;;;;;;;6.22;0.50;;;;;;;;;;5284357;28;20100;-69
2022/09/01 03:11:00;;;;;;;2.08;0.50;;;;;;;;;;5284926;28;20017;-68
2022/09/01 03:13:31;;;;;;;4.65;0.60;;;;;;;;;;5283405;28;20552;-68
2022/09/01 03:16:03;;;;;;;5.95;0.50;;;;;;;;;;5284591;28;20033;-68
2022/09/01 03:18:35;;;;;;;5.35;0.70;;;;;;;;;;5284043;28;20031;-68
2022/09/01 03:21:07;;;;;;;2.78;0.60;;;;;;;;;;5284068;28;20388;-69
2022/09/01 03:23:38;;;;;;;7.28;0.60;;;;;;;;;;5284054;28;20023;-68
2022/09/01 03:26:09;;;;;;;3.20;0.50;;;;;;;;;;5283895;28;20016;-68
2022/09/01 03:28:40;;;;;;;3.67;0.57;;;;;;;;;;5283852;28;20281;-68
2022/09/01 03:31:12;;;;;;;2.10;0.50;;;;;;;;;;5284675;28;20412;-68
2022/09/01 03:33:43;;;;;;;2.33;0.57;;;;;;;;;;5283094;28;20032;-68
2022/09/01 03:36:18;;;;;;;3.10;0.60;;;;;;;;;;5284342;28;20036;-68
2022/09/01 03:38:50;;;;;;;3.47;0.50;;;;;;;;;;5283598;28;20017;-68
2022/09/01 03:41:27;;;;;;;3.28;0.93;;;;;;;;;;5283464;28;20070;-68
2022/09/01 03:43:58;;;;;;;3.65;0.50;;;;;;;;;;5284108;28;20051;-68
2022/09/01 03:46:30;;;;;;;3.73;0.57;;;;;;;;;;5283347;28;20421;-68
2022/09/01 03:49:02;;;;;;;3.38;0.60;;;;;;;;;;5283139;28;20275;-68
2022/09/01 03:51:34;;;;;;;1.58;0.50;;;;;;;;;;5283393;28;20418;-68
2022/09/01 03:54:05;;;;;;;6.57;0.60;;;;;;;;;;5284147;28;20017;-68
2022/09/01 03:56:40;;;;;;;3.00;0.60;;;;;;;;;;5282481;28;20060;-68
2022/09/01 03:59:15;;;;;;;11.93;0.93;;;;;;;;;;5283869;28;20033;-68
2022/09/01 04:01:46;;;;;;;2.88;0.55;;;;;;;;;;5282433;28;20028;-68
2022/09/01 04:04:18;;;;;;;5.10;0.90;;;;;;;;;;5283984;28;20009;-68
2022/09/01 04:06:49;;;;;;;6.82;0.80;;;;;;;;;;5282952;28;20102;-68
2022/09/01 04:09:20;;;;;;;4.38;0.55;;;;;;;;;;5282808;28;20024;-69
2022/09/01 04:11:52;;;;;;;5.75;0.70;;;;;;;;;;5282970;28;20455;-69
2022/09/01 04:14:24;;;;;;;1.60;0.50;;;;;;;;;;5283120;28;20266;-68
2022/09/01 04:19:46;;;;;;;4.22;0.50;;;;;;;;;;5282919;28;20045;-68
2022/09/01 04:22:17;;;;;;;7.60;1.13;;;;;;;;;;5283514;28;20356;-68
2022/09/01 04:24:49;;;;;;;9.88;0.98;;;;;;;;;;5281807;28;20023;-68
2022/09/01 04:27:21;;;;;;;2.50;0.60;;;;;;;;;;5283687;28;20263;-69
2022/09/01 04:29:53;;;;;;;6.00;0.73;;;;;;;;;;5282137;28;20048;-68
2022/09/01 04:32:24;;;;;;;6.37;0.60;;;;;;;;;;5283120;28;20048;-68
2022/09/01 04:34:55;;;;;;;7.15;1.60;;;;;;;;;;5282649;28;20308;-68
2022/09/01 04:37:27;;;;;;;5.57;0.70;;;;;;;;;;5281896;28;20013;-68
2022/09/01 04:39:58;;;;;;;10.02;0.80;;;;;;;;;;5282807;28;20017;-69
2022/09/01 04:42:31;;;;;;;7.57;0.63;;;;;;;;;;5282426;28;20451;-68
2022/09/01 04:45:03;;;;;;;11.27;0.93;;;;;;;;;;5282115;28;20021;-68
2022/09/01 04:47:36;;;;;;;6.53;0.80;;;;;;;;;;5282042;28;20019;-68
2022/09/01 04:50:16;;;;;;;4.47;1.00;;;;;;;;;;5282866;28;20020;-68
2022/09/01 04:52:47;;;;;;;7.60;0.73;;;;;;;;;;5281403;28;20023;-68
2022/09/01 04:55:18;;;;;;;4.65;0.60;;;;;;;;;;5282583;28;20024;-68
2022/09/01 04:57:49;;;;;;;8.57;1.20;;;;;;;;;;5280631;28;20036;-68
2022/09/01 05:00:21;;;;;;;6.40;0.80;;;;;;;;;;5282663;28;20083;-68
2022/09/01 05:03:02;;;;;;;8.63;0.60;;;;;;;;;;5281998;28;20290;-68
2022/09/01 05:05:52;;;;;;;5.18;0.57;;;;;;;;;;5281006;28;20031;-68
2022/09/01 05:08:24;;;;;;;9.95;1.08;;;;;;;;;;5281994;28;20037;-68
2022/09/01 05:10:55;;;;;;;9.65;0.70;;;;;;;;;;5282168;28;20021;-68
2022/09/01 05:13:28;;;;;;;7.57;1.13;;;;;;;;;;5280972;28;20058;-68
2022/09/01 05:16:02;;;;;;;7.60;1.08;;;;;;;;;;5282400;28;20476;-68
2022/09/01 05:18:34;;;;;;;5.93;1.27;;;;;;;;;;5281391;28;20013;-68
2022/09/01 05:21:10;;;;;;;5.63;0.80;;;;;;;;;;5281152;28;20017;-68
2022/09/01 05:23:42;;;;;;;3.20;0.60;;;;;;;;;;5281624;28;20384;-68
2022/09/01 05:26:17;;;;;;;8.75;0.90;;;;;;;;;;5281347;28;20360;-69
2022/09/01 05:28:52;;;;;;;6.25;1.08;;;;;;;;;;5281233;28;20017;-67
2022/09/01 05:31:26;;;;;;;5.80;0.70;;;;;;;;;;5281358;28;20482;-68
2022/09/01 05:33:59;;;;;;;9.02;0.70;;;;;;;;;;5281196;28;20027;-68
2022/09/01 05:36:32;;;;;;;7.07;0.70;;;;;;;;;;5281089;28;20107;-68
2022/09/01 05:39:04;;;;;;;4.72;0.95;;;;;;;;;;5281828;28;20088;-69
2022/09/01 05:41:36;;;;;;;5.45;0.60;;;;;;;;;;5280167;28;20032;-68
2022/09/01 05:44:07;;;;;;;9.77;0.75;;;;;;;;;;5281641;28;20040;-68
2022/09/01 05:46:39;;;;;;;4.95;1.23;;;;;;;;;;5280988;28;20464;-68
2022/09/01 05:49:12;;;;;;;9.90;0.80;;;;;;;;;;5280910;28;20526;-68
2022/09/01 05:51:51;;;;;;;4.78;0.80;;;;;;;;;;5280939;28;20078;-68
2022/09/01 05:54:24;;;;;;;;;;;;;;;;;;5281080;28;20103;-69
2022/09/01 05:56:59;;;;;;;8.77;0.70;;;;;;;;;;5281294;28;20294;-68
2022/09/01 05:59:32;;;;;;;9.23;1.25;;;;;;;;;;5281033;28;20040;-68
2022/09/01 06:02:07;;;;;;;3.90;0.70;;;;;;;;;;5281147;28;20013;-68
2022/09/01 06:04:42;;;;;;;3.75;1.05;;;;;;;;;;5280606;28;20050;-68
2022/09/01 06:07:14;;;;;;;6.45;0.80;;;;;;;;;;5281223;28;20495;-68
2022/09/01 06:09:47;;;;;;;4.82;0.70;;;;;;;;;;5279976;28;20028;-68
2022/09/01 06:12:19;;;;;;;5.00;0.80;;;;;;;;;;5281066;28;20017;-68
2022/09/01 06:14:51;;;;;;;6.55;0.60;;;;;;;;;;5280690;28;20066;-68
2022/09/01 06:17:24;;;;;;;7.93;0.55;;;;;;;;;;5280292;28;20031;-68
2022/09/01 06:19:56;;;;;;;6.13;0.60;;;;;;;;;;5280902;28;20071;-68
2022/09/01 06:22:28;;;;;;;7.68;0.70;;;;;;;;;;5279889;28;20052;-68
2022/09/01 06:24:59;;;;;;;5.30;0.60;;;;;;;;;;5281137;28;20020;-68
2022/09/01 06:27:31;;;;;;;6.40;0.70;;;;;;;;;;5280507;28;20099;-69
2022/09/01 06:30:03;;;;;;;6.30;0.70;;;;;;;;;;5280250;28;20286;-69
2022/09/01 06:32:37;;;;;;;7.22;0.80;;;;;;;;;;5280404;28;20090;-69
2022/09/01 06:35:10;;;;;;;6.47;0.75;;;;;;;;;;5281188;28;20024;-69
2022/09/01 06:37:44;;;;;;;3.05;0.73;;;;;;;;;;5279656;28;20174;-69
2022/09/01 06:40:16;;;;;;;10.68;1.00;;;;;;;;;;5280616;28;20023;-69
2022/09/01 06:42:50;;;;;;;2.50;0.55;;;;;;;;;;5280526;28;20375;-69
2022/09/01 06:45:22;;;;;;;6.13;0.60;;;;;;;;;;5280391;28;20162;-69
2022/09/01 06:47:54;;;;;;;3.63;0.60;;;;;;;;;;5280082;28;20112;-70
2022/09/01 06:50:26;;;;;;;5.80;0.80;;;;;;;;;;5279538;28;20029;-70
2022/09/01 06:53:02;;;;;;;4.35;0.68;;;;;;;;;;5280985;28;20367;-69
2022/09/01 06:55:36;;;;;;;7.18;0.70;;;;;;;;;;5280157;28;20115;-68
2022/09/01 06:58:08;;;;;;;19.73;1.23;;;;;;;;;;5280073;28;20324;-69
2022/09/01 07:00:40;;;;;;;11.00;1.70;;;;;;;;;;5280103;28;20020;-69
2022/09/01 07:03:13;;;;;;;4.55;0.60;;;;;;;;;;5280385;28;20017;-69
2022/09/01 07:05:45;;;;;;;8.10;0.95;;;;;;;;;;5279338;28;20049;-69
2022/09/01 07:08:18;;;;;;;7.80;0.90;;;;;;;;;;5280555;28;20027;-69
2022/09/01 07:10:50;;;;;;;6.57;0.70;;;;;;;;;;5280139;28;20460;-69
2022/09/01 07:13:22;;;;;;;6.88;0.82;;;;;;;;;;5280139;28;20379;-67
2022/09/01 07:15:55;;;;;;;5.18;0.70;;;;;;;;;;5280352;28;20033;-67
2022/09/01 07:18:26;;;;;;;4.68;0.63;;;;;;;;;;5274144;28;20551;-68
2022/09/01 07:20:58;;;;;;;4.38;0.80;;;;;;;;;;5280319;28;20103;-68
2022/09/01 07:23:30;;;;;;;3.35;0.70;;;;;;;;;;5283800;28;20013;-69
2022/09/01 07:26:05;;;;;;;2.83;0.60;;;;;;;;;;5283464;28;20024;-69
2022/09/01 07:28:36;;;;;;;3.65;0.70;;;;;;;;;;5283502;28;20394;-69
2022/09/01 07:31:08;;;;;;;6.43;0.70;;;;;;;;;;5284381;28;20103;-70
2022/09/01 07:33:39;;;;;;;6.73;0.80;;;;;;;;;;5282504;28;20259;-68
2022/09/01 07:36:11;;;;;;;4.90;1.35;;;;;;;;;;5284155;28;20377;-69
2022/09/01 07:38:42;;;;;;;7.40;0.77;;;;;;;;;;5279324;28;20274;-68
2022/09/01 07:41:13;;;;;;;7.83;0.70;;;;;;;;;;5283253;28;20020;-69
2022/09/01 07:43:44;;;;;;;13.30;1.10;;;;;;;;;;5282878;28;20799;-69
2022/09/01 07:46:15;;;;;;;4.43;0.80;;;;;;;;;;5283682;28;20750;-69
2022/09/01 07:48:47;;;;;;;2.85;0.60;;;;;;;;;;5282382;28;20661;-68
2022/09/01 07:51:19;;;;;;;3.55;0.60;;;;;;;;;;5283977;28;20371;-69
2022/09/01 07:53:51;;;;;;;4.85;0.70;;;;;;;;;;5282361;28;20016;-69
2022/09/01 07:56:23;;;;;;;3.05;0.68;;;;;;;;;;5283844;28;20467;-69
2022/09/01 07:58:55;;;;;;;6.45;0.85;;;;;;;;;;5283580;28;20012;-68
2022/09/01 08:01:27;;;;;;;4.82;0.60;;;;;;;;;;5282414;28;20406;-70
2022/09/01 08:04:00;;;;;;;3.00;1.00;;;;;;;;;;5283935;28;20024;-71
2022/09/01 08:06:33;;;;;;;3.45;0.70;;;;;;;;;;5282731;28;20047;-71
2022/09/01 08:09:09;;;;;;;3.80;0.95;;;;;;;;;;5283238;28;20091;-71
2022/09/01 08:11:41;;;;;;;4.13;0.60;;;;;;;;;;5282844;28;20028;-70
2022/09/01 08:14:12;;;;;;;5.10;0.60;;;;;;;;;;5283360;28;20372;-71
2022/09/01 08:16:43;;;;;;;3.47;0.60;;;;;;;;;;5278618;28;20498;-68
2022/09/01 08:19:16;;;;;;;5.50;0.70;;;;;;;;;;5272026;28;20657;-68
2022/09/01 08:21:47;;;;;;;4.13;0.77;;;;;;;;;;5271447;28;20263;-68
2022/09/01 08:24:18;;;;;;;6.00;0.70;;;;;;;;;;5272785;28;20024;-68
2022/09/01 08:26:50;;;;;;;3.77;1.13;;;;;;;;;;5276892;28;20086;-68
2022/09/01 08:29:21;;;;;;;5.23;0.70;;;;;;;;;;5282495;28;20267;-69
2022/09/01 08:31:53;;;;;;;5.47;0.90;;;;;;;;;;5282510;28;20263;-68
2022/09/01 08:34:24;;;;;;;2.65;0.60;;;;;;;;;;5281658;28;20016;-68
2022/09/01 08:36:56;;;;;;;4.63;0.65;;;;;;;;;;5281903;28;20383;-68
2022/09/01 08:39:27;;;;;;;5.32;0.60;;;;;;;;;;5282554;28;20035;-69
2022/09/01 08:42:01;;;;;;;5.57;0.70;;;;;;;;;;5282987;28;20336;-69
2022/09/01 08:44:44;;;;;;;5.50;0.70;;;;;;;;;;5281431;28;20279;-68
2022/09/01 08:47:16;;;;;;;3.45;0.70;;;;;;;;;;5282755;28;20078;-68
2022/09/01 08:49:49;;;;;;;4.47;0.70;;;;;;;;;;5281176;28;20066;-69
2022/09/01 08:52:24;;;;;;;6.88;0.70;;;;;;;;;;5282656;28;20048;-68
2022/09/01 08:55:00;;;;;;;9.15;0.63;;;;;;;;;;5282133;28;20024;-68
2022/09/01 08:57:35;;;;;;;6.55;0.70;;;;;;;;;;5280923;28;20064;-68
2022/09/01 09:00:10;;;;;;;2.67;0.65;;;;;;;;;;5282644;28;20492;-68
2022/09/01 09:03:01;;;;;;;7.18;0.70;;;;;;;;;;5281826;28;20025;-69
2022/09/01 09:05:37;;;;;;;4.88;0.98;;;;;;;;;;5281092;28;20074;-69
2022/09/01 09:08:21;;;;;;;6.88;0.95;;;;;;;;;;5282254;28;20495;-68
2022/09/01 09:11:01;;;;;;;4.70;0.73;;;;;;;;;;5280835;28;20024;-68
2022/09/01 09:13:37;;;;;;;4.55;0.60;;;;;;;;;;5281502;28;20021;-69
2022/09/01 09:16:14;;;;;;;5.13;0.65;;;;;;;;;;5281915;28;20047;-68
2022/09/01 09:18:53;;;;;;;5.75;0.70;;;;;;;;;;5280738;28;20103;-68
2022/09/01 09:21:41;;;;;;;5.45;0.70;;;;;;;;;;5281935;28;20028;-68
2022/09/01 09:24:18;;;;;;;6.23;0.70;;;;;;;;;;5282338;28;20447;-68
2022/09/01 09:26:50;;;;;;;6.72;0.98;;;;;;;;;;5280473;28;20032;-68
2022/09/01 09:29:21;;;;;;;7.10;0.60;;;;;;;;;;5282131;28;20028;-68
2022/09/01 09:32:07;;;;;;;6.65;1.02;;;;;;;;;;5280956;28;20020;-68
2022/09/01 09:34:40;;;;;;;6.68;0.80;;;;;;;;;;5281331;28;20020;-68
2022/09/01 09:37:25;;;;;;;6.00;0.80;;;;;;;;;;5281813;28;20035;-68
2022/09/01 09:40:09;;;;;;;6.55;0.60;;;;;;;;;;5280964;28;20024;-68
2022/09/01 09:42:41;;;;;;;5.25;0.73;;;;;;;;;;5281275;28;20463;-68
2022/09/01 09:45:19;;;;;;;5.40;0.50;;;;;;;;;;5281312;28;20111;-68
2022/09/01 09:47:52;;;;;;;5.97;0.65;;;;;;;;;;5280465;28;20020;-68
2022/09/01 09:50:25;;;;;;;4.97;0.68;;;;;;;;;;5281568;28;20048;-69
2022/09/01 09:53:14;;;;;;;7.28;0.50;;;;;;;;;;5281348;28;20024;-68
2022/09/01 09:55:50;;;;;;;5.18;0.47;;;;;;;;;;5280789;28;20071;-68
2022/09/01 09:58:25;;;;;;;6.65;0.40;;;;;;;;;;5281517;28;20197;-68
2022/09/01 10:00:59;;;;;;;2.65;0.38;;;;;;;;;;5280675;28;20024;-68
2022/09/01 10:03:41;;;;;;;4.20;0.35;;;;;;;;;;5280994;28;20028;-68
2022/09/01 10:06:15;;;;;;;3.50;0.32;;;;;;;;;;5281148;28;20395;-68
2022/09/01 10:08:46;;;;;;;4.10;0.40;;;;;;;;;;5280081;28;20035;-68
2022/09/01 10:11:26;;;;;;;1.20;0.30;;;;;;;;;;5281413;28;20021;-68
2022/09/01 10:13:57;;;;;;;5.13;0.40;;;;;;;;;;5281162;28;20376;-66
2022/09/01 10:16:30;;;;;;;3.05;0.20;;;;;;;;;;5279773;28;20035;-67
2022/09/01 10:19:01;;;;;;;4.47;0.68;;;;;;;;;;5280888;28;20124;-67
2022/09/01 10:21:34;;;;;;;3.25;0.38;;;;;;;;;;5280029;28;20115;-67
2022/09/01 10:24:14;;;;;;;1.75;0.20;;;;;;;;;;5281148;28;20367;-67
2022/09/01 10:26:47;;;;;;;2.05;0.30;;;;;;;;;;5280566;28;20322;-67
2022/09/01 10:29:21;;;;;;;2.13;0.20;;;;;;;;;;5280215;28;20103;-67
2022/09/01 10:31:53;;;;;;;5.00;0.30;;;;;;;;;;5280744;28;20044;-67
2022/09/01 10:34:26;;;;;;;1.55;0.20;;;;;;;;;;5280886;28;20067;-67
2022/09/01 10:36:58;;;;;;;1.75;0.20;;;;;;;;;;5280252;28;20067;-67
2022/09/01 10:39:29;;;;;;;3.92;0.30;;;;;;;;;;5280413;28;20036;-67
2022/09/01 10:42:07;;;;;;;1.98;0.20;;;;;;;;;;5281347;28;20021;-68
2022/09/01 10:44:54;;;;;;;1.83;0.20;;;;;;;;;;5279686;28;20099;-68
2022/09/01 10:47:28;;;;;;;1.03;0.23;;;;;;;;;;5280140;28;20051;-67
2022/09/01 10:50:03;;;;;;;2.88;0.30;;;;;;;;;;5280267;28;20433;-67
2022/09/01 10:52:40;;;;;;;4.13;0.28;;;;;;;;;;5280530;28;20027;-67
2022/09/01 10:55:14;;;;;;;2.38;0.20;;;;;;;;;;5280891;28;20025;-67
2022/09/01 10:58:01;;;;;;;3.25;0.30;;;;;;;;;;5282438;28;20032;-67
2022/09/01 11:00:35;;;;;;;5.57;0.38;;;;;;;;;;5284405;28;20017;-68
2022/09/01 11:03:12;;;;;;;2.38;0.20;;;;;;;;;;5284799;28;20020;-67
2022/09/01 11:06:04;;;;;;;1.73;0.20;;;;;;;;;;5283101;28;20052;-66
2022/09/01 11:08:46;;;;;;;2.45;0.30;;;;;;;;;;5283331;28;20040;-67
2022/09/01 11:11:20;;;;;;;0.85;0.22;;;;;;;;;;5283811;28;20028;-67
2022/09/01 11:13:53;;;;;;;2.60;0.30;;;;;;;;;;5283946;28;20017;-68
2022/09/01 11:16:25;;;;;;;1.67;0.30;;;;;;;;;;5284404;28;20060;-67
2022/09/01 11:19:16;;;;;;;3.85;0.75;;;;;;;;;;5283655;28;20055;-67
2022/09/01 11:22:01;;;;;;;2.78;0.30;;;;;;;;;;5283694;28;20016;-67
2022/09/01 11:24:38;;;;;;;1.85;0.20;;;;;;;;;;5283125;28;20020;-67
2022/09/01 11:27:11;;;;;;;4.43;0.30;;;;;;;;;;5284413;28;20025;-67
2022/09/01 11:30:05;;;;;;;2.05;0.30;;;;;;;;;;5283756;28;20021;-67
2022/09/01 11:32:37;;;;;;;5.90;0.30;;;;;;;;;;5283070;28;20498;-67
2022/09/01 11:35:17;;;;;;;2.22;0.40;;;;;;;;;;5284111;28;20060;-67
2022/09/01 11:37:49;;;;;;;3.33;0.30;;;;;;;;;;5283793;28;20026;-67
2022/09/01 11:40:22;;;;;;;3.45;0.30;;;;;;;;;;5283418;28;20016;-66
2022/09/01 11:42:55;;;;;;;3.88;0.30;;;;;;;;;;5283775;28;20020;-66
2022/09/01 11:45:31;;;;;;;5.53;0.40;;;;;;;;;;5283707;28;20495;-67
2022/09/01 11:48:08;;;;;;;0.77;0.20;;;;;;;;;;5284122;28;20051;-66
2022/09/01 11:50:40;;;;;;;5.90;0.45;;;;;;;;;;5283304;28;20082;-66
2022/09/01 11:53:13;;;;;;;2.83;0.30;;;;;;;;;;5283263;28;20541;-67
2022/09/01 11:55:46;;;;;;;2.83;0.22;;;;;;;;;;5283168;28;20051;-69
2022/09/01 11:58:26;;;;;;;1.83;0.30;;;;;;;;;;5283748;28;20483;-67
2022/09/01 12:01:15;;;;;;;0.68;0.20;;;;;;;;;;5282863;28;20098;-68
2022/09/01 12:03:48;;;;;;;3.53;0.30;;;;;;;;;;5283294;28;20025;-67
2022/09/01 12:06:22;;;;;;;6.05;0.25;;;;;;;;;;5283430;28;20065;-67
2022/09/01 12:09:01;;;;;;;1.75;0.20;;;;;;;;;;5282003;28;20025;-68
2022/09/01 12:11:35;;;;;;;1.50;0.20;;;;;;;;;;5282954;28;20025;-68
2022/09/01 12:14:07;;;;;;;3.97;0.20;;;;;;;;;;5282689;28;20035;-69
2022/09/01 12:16:40;;;;;;;3.58;0.30;;;;;;;;;;5282837;28;20221;-68
2022/09/01 12:19:25;;;;;;;3.90;0.20;;;;;;;;;;5283539;28;20412;-67
2022/09/01 12:22:05;;;;;;;4.95;0.30;;;;;;;;;;5282432;28;20028;-68
2022/09/01 12:24:36;;;;;;;3.15;0.20;;;;;;;;;;5282961;28;20451;-68
2022/09/01 12:27:08;;;;;;;3.37;0.30;;;;;;;;;;5283428;28;20023;-68
2022/09/01 12:29:39;;;;;;;2.30;0.23;;;;;;;;;;5281823;28;20741;-67
2022/09/01 12:32:12;;;;;;;2.33;0.20;;;;;;;;;;5283108;28;20271;-67
2022/09/01 12:34:43;;;;;;;3.35;0.30;;;;;;;;;;5281908;28;20031;-67
2022/09/01 12:37:14;;;;;;;2.70;0.20;;;;;;;;;;5282868;28;20459;-67
2022/09/01 12:39:47;;;;;;;3.83;0.30;;;;;;;;;;5282309;28;20460;-69
2022/09/01 12:42:18;;;;;;;5.38;0.40;;;;;;;;;;5282214;28;20009;-68
2022/09/01 12:44:52;;;;;;;2.93;0.20;;;;;;;;;;5282200;28;20478;-67
2022/09/01 12:47:32;;;;;;;3.20;0.13;;;;;;;;;;5282466;28;20030;-67
2022/09/01 12:50:05;;;;;;;2.53;0.15;;;;;;;;;;5281982;28;20012;-67
2022/09/01 12:52:44;;;;;;;5.53;0.20;;;;;;;;;;5281975;28;20032;-67
2022/09/01 12:55:16;;;;;;;2.53;0.45;;;;;;;;;;5282387;28;20107;-67
2022/09/01 12:57:50;;;;;;;1.92;0.15;;;;;;;;;;5281214;28;20012;-67
2022/09/01 13:00:22;;;;;;;3.67;0.20;;;;;;;;;;5282470;28;20043;-68
2022/09/01 13:02:53;;;;;;;2.08;0.20;;;;;;;;;;5281115;28;20052;-67
2022/09/01 13:05:35;;;;;;;4.35;0.10;;;;;;;;;;5281651;28;20062;-67
2022/09/01 13:08:08;;;;;;;1.00;0.10;;;;;;;;;;5282699;28;20023;-67
2022/09/01 13:10:40;;;;;;;1.67;0.15;;;;;;;;;;5274461;28;20023;-67
2022/09/01 13:13:12;;;;;;;1.75;0.20;;;;;;;;;;5261225;28;20021;-67
2022/09/01 13:15:46;;;;;;;3.15;0.20;;;;;;;;;;5260657;28;20029;-67
2022/09/01 13:18:18;;;;;;;1.40;0.15;;;;;;;;;;5260727;28;20411;-66
2022/09/01 13:20:51;;;;;;;1.77;0.15;;;;;;;;;;5260102;28;20116;-67
2022/09/01 13:23:23;;;;;;;2.03;0.20;;;;;;;;;;5261238;28;20529;-67
2022/09/01 13:25:54;;;;;;;1.33;0.20;;;;;;;;;;5260208;28;20025;-67
2022/09/01 13:28:26;;;;;;;3.37;0.20;;;;;;;;;;5260341;28;20021;-67
2022/09/01 13:30:58;;;;;;;2.83;0.20;;;;;;;;;;5261056;28;20271;-67
2022/09/01 13:33:30;;;;;;;3.67;0.20;;;;;;;;;;5260242;28;20096;-67
2022/09/01 13:36:02;;;;;;;3.20;0.20;;;;;;;;;;5260783;28;20112;-68
2022/09/01 13:38:33;;;;;;;3.13;0.20;;;;;;;;;;5259457;28;20009;-66
2022/09/01 13:41:05;;;;;;;2.78;0.15;;;;;;;;;;5260739;28;20529;-67
2022/09/01 13:43:36;;;;;;;1.45;0.20;;;;;;;;;;5260506;28;20025;-67
2022/09/01 13:46:08;;;;;;;4.38;0.20;;;;;;;;;;5260248;28;20119;-67
2022/09/01 13:48:39;;;;;;;5.18;0.17;;;;;;;;;;5260188;28;20039;-67
2022/09/01 13:51:10;;;;;;;3.47;0.20;;;;;;;;;;5265914;28;20091;-67
2022/09/01 13:53:41;;;;;;;2.00;0.25;;;;;;;;;;5259193;28;20016;-68
2022/09/01 13:56:13;;;;;;;3.23;0.20;;;;;;;;;;5260677;28;20166;-68
2022/09/01 13:58:44;;;;;;;3.70;0.20;;;;;;;;;;5260214;28;20462;-68
2022/09/01 14:01:15;;;;;;;2.03;0.20;;;;;;;;;;5259874;28;20029;-68
2022/09/01 14:03:47;;;;;;;6.93;0.30;;;;;;;;;;5259918;28;20021;-68
2022/09/01 14:06:20;;;;;;;2.28;0.20;;;;;;;;;;5259719;28;20095;-68
2022/09/01 14:08:51;;;;;;;2.17;0.15;;;;;;;;;;5259879;28;20016;-68
2022/09/01 14:11:23;;;;;;;2.33;0.17;;;;;;;;;;5268508;28;20017;-68
2022/09/01 14:13:54;;;;;;;3.72;0.30;;;;;;;;;;5269744;28;20037;-68
2022/09/01 14:16:25;;;;;;;5.93;0.33;;;;;;;;;;5269133;28;20067;-68
2022/09/01 14:18:58;;;;;;;4.30;0.38;;;;;;;;;;5270033;28;20021;-68
2022/09/01 14:21:29;;;;;;;3.28;0.35;;;;;;;;;;5268745;28;20016;-68
2022/09/01 14:24:01;;;;;;;3.43;0.23;;;;;;;;;;5269815;28;20012;-68
2022/09/01 14:26:32;;;;;;;3.50;0.50;;;;;;;;;;5269813;28;20259;-67
2022/09/01 14:29:03;;;;;;;2.35;0.30;;;;;;;;;;5269946;28;20047;-68
2022/09/01 14:31:36;;;;;;;4.50;0.20;;;;;;;;;;5271185;28;20460;-68
2022/09/01 14:34:10;;;;;;;3.80;0.30;;;;;;;;;;5273984;28;20267;-68
2022/09/01 14:36:42;;;;;;;5.32;0.28;;;;;;;;;;5272473;28;20036;-69
2022/09/01 14:39:14;;;;;;;6.28;0.30;;;;;;;;;;5273961;28;20017;-68
2022/09/01 14:41:45;;;;;;;4.85;0.30;;;;;;;;;;5272619;28;20060;-68
2022/09/01 14:44:16;;;;;;;1.17;0.30;;;;;;;;;;5273797;28;20017;-69
2022/09/01 14:46:47;;;;;;;2.33;0.33;;;;;;;;;;5263695;28;20020;-68
2022/09/01 14:49:19;;;;;;;2.88;0.40;;;;;;;;;;5263624;28;20282;-68
2022/09/01 14:51:50;;;;;;;4.25;0.32;;;;;;;;;;5263627;28;20013;-68
2022/09/01 14:54:22;;;;;;;2.57;0.30;;;;;;;;;;5264462;28;20021;-68
2022/09/01 14:56:53;;;;;;;2.30;0.22;;;;;;;;;;5262998;28;20021;-67
2022/09/01 14:59:24;;;;;;;2.97;0.20;;;;;;;;;;5263963;28;20023;-68
2022/09/01 15:01:55;;;;;;;1.93;0.30;;;;;;;;;;5263860;28;20017;-68
2022/09/01 15:04:26;;;;;;;4.55;0.30;;;;;;;;;;5262731;28;20025;-68
2022/09/01 15:06:58;;;;;;;3.47;0.30;;;;;;;;;;5263852;28;20076;-68
2022/09/01 15:09:30;;;;;;;4.47;0.20;;;;;;;;;;5262672;28;20029;-68
2022/09/01 15:12:01;;;;;;;6.28;0.60;;;;;;;;;;5263775;28;20013;-68
2022/09/01 15:14:32;;;;;;;5.47;0.70;;;;;;;;;;5263315;28;20052;-68
2022/09/01 15:17:04;;;;;;;6.33;0.50;;;;;;;;;;5263040;28;20029;-68
2022/09/01 15:19:35;;;;;;;5.15;0.75;;;;;;;;;;5263394;28;20526;-68
2022/09/01 15:22:08;;;;;;;5.03;0.63;;;;;;;;;;5263778;28;20017;-68
2022/09/01 15:24:39;;;;;;;3.92;0.60;;;;;;;;;;5262283;28;20259;-67